createdAt,value
2022-10-31T00:01:25.146Z,11.65
2022-10-31T00:03:52.204Z,10.75
2022-10-31T00:06:19.294Z,11.13
2022-10-31T00:08:59.809Z,10.40
2022-10-31T00:11:26.745Z,11.23
2022-10-31T00:13:53.794Z,10.27
2022-10-31T00:16:25.536Z,12.00
2022-10-31T00:21:23.867Z,10.20
2022-10-31T00:23:50.747Z,11.23
2022-10-31T00:26:17.817Z,10.77
2022-10-31T00:28:44.524Z,11.65
2022-10-31T00:31:12.632Z,12.27
2022-10-31T00:33:40.757Z,11.82
2022-10-31T00:36:11.197Z,10.48
2022-10-31T00:38:40.733Z,11.57
2022-10-31T00:41:07.818Z,12.30
2022-10-31T00:43:34.497Z,11.40
2022-10-31T00:46:01.471Z,11.23
2022-10-31T00:48:28.157Z,11.75
2022-10-31T00:50:54.853Z,11.68
2022-10-31T00:53:23.165Z,12.55
2022-10-31T00:55:49.969Z,11.73
2022-10-31T00:58:17.016Z,13.73
2022-10-31T01:00:46.787Z,13.02
2022-10-31T01:03:16.095Z,13.85
2022-10-31T01:05:42.814Z,13.10
2022-10-31T01:08:09.559Z,11.95
2022-10-31T01:10:36.196Z,12.23
2022-10-31T01:13:03.012Z,13.38
2022-10-31T01:15:29.717Z,12.82
2022-10-31T01:17:56.423Z,12.02
2022-10-31T01:20:23.300Z,12.73
2022-10-31T01:22:50.008Z,12.82
2022-10-31T01:25:16.915Z,13.13
2022-10-31T01:27:43.622Z,13.40
2022-10-31T01:30:11.717Z,13.45
2022-10-31T01:32:38.505Z,13.60
2022-10-31T01:35:05.466Z,13.05
2022-10-31T01:37:32.397Z,12.27
2022-10-31T01:39:59.337Z,12.27
2022-10-31T01:42:27.216Z,13.98
2022-10-31T01:44:57.611Z,13.15
2022-10-31T01:47:31.552Z,13.38
2022-10-31T01:50:01.705Z,13.38
2022-10-31T01:52:30.697Z,12.63
2022-10-31T01:55:05.577Z,13.48
2022-10-31T01:57:34.126Z,13.40
2022-10-31T02:00:04.589Z,14.98
2022-10-31T02:02:40.327Z,13.60
2022-10-31T02:05:11.196Z,14.07
2022-10-31T02:07:43.471Z,14.27
2022-10-31T02:10:10.444Z,13.45
2022-10-31T02:12:39.095Z,12.13
2022-10-31T02:15:06.599Z,12.40
2022-10-31T02:17:34.527Z,13.18
2022-10-31T02:20:18.230Z,13.32
2022-10-31T02:23:03.025Z,14.27
2022-10-31T02:26:14.783Z,12.45
2022-10-31T02:28:44.481Z,13.10
2022-10-31T02:31:34.917Z,13.55
2022-10-31T02:34:24.066Z,14.98
2022-10-31T02:37:24.685Z,14.30
2022-10-31T02:40:19.612Z,13.88
2022-10-31T02:43:29.441Z,14.20
2022-10-31T02:46:03.772Z,14.07
2022-10-31T02:48:37.865Z,14.35
2022-10-31T02:51:05.945Z,13.82
2022-10-31T02:53:37.423Z,13.68
2022-10-31T02:56:13.077Z,13.68
2022-10-31T02:58:50.258Z,14.40
2022-10-31T03:01:32.370Z,14.43
2022-10-31T03:04:17.610Z,13.85
2022-10-31T03:06:58.984Z,13.73
2022-10-31T03:09:29.213Z,15.25
2022-10-31T03:12:09.230Z,14.07
2022-10-31T03:14:49.771Z,14.52
2022-10-31T03:17:28.571Z,14.38
2022-10-31T03:19:59.165Z,13.55
2022-10-31T03:22:30.426Z,13.43
2022-10-31T03:25:00.911Z,13.57
2022-10-31T03:27:29.473Z,13.45
2022-10-31T03:29:59.368Z,14.05
2022-10-31T03:32:35.670Z,14.77
2022-10-31T03:35:07.190Z,14.00
2022-10-31T03:37:35.526Z,13.48
2022-10-31T03:40:05.030Z,13.82
2022-10-31T03:42:38.344Z,13.50
2022-10-31T03:45:10.181Z,13.48
2022-10-31T03:47:38.588Z,14.38
2022-10-31T03:50:08.379Z,13.80
2022-10-31T03:52:56.981Z,14.10
2022-10-31T03:55:54.419Z,17.90
2022-10-31T03:58:33.491Z,18.17
2022-10-31T04:01:03.643Z,17.63
2022-10-31T04:03:35.468Z,18.10
2022-10-31T04:06:08.069Z,18.38
2022-10-31T04:08:42.867Z,16.75
2022-10-31T04:11:16.146Z,17.80
2022-10-31T04:13:45.136Z,16.45
2022-10-31T04:16:19.402Z,17.60
2022-10-31T04:18:46.198Z,17.45
2022-10-31T04:21:12.905Z,16.52
2022-10-31T04:23:39.708Z,17.88
2022-10-31T04:26:17.539Z,17.70
2022-10-31T04:28:44.445Z,15.85
2022-10-31T04:31:13.377Z,17.10
2022-10-31T04:33:40.856Z,16.48
2022-10-31T04:36:07.996Z,16.63
2022-10-31T04:38:35.006Z,15.85
2022-10-31T04:41:05.935Z,16.00
2022-10-31T04:43:46.740Z,15.63
2022-10-31T04:46:14.219Z,15.60
2022-10-31T04:48:41.213Z,15.80
2022-10-31T04:51:08.216Z,15.30
2022-10-31T04:53:34.972Z,16.35
2022-10-31T04:56:25.019Z,16.65
2022-10-31T04:58:57.271Z,14.65
2022-10-31T05:01:25.664Z,15.63
2022-10-31T05:03:52.472Z,15.63
2022-10-31T05:06:19.275Z,14.82
2022-10-31T05:08:46.675Z,19.20
2022-10-31T05:11:13.979Z,19.95
2022-10-31T05:13:40.895Z,16.98
2022-10-31T05:16:13.339Z,16.42
2022-10-31T05:18:58.888Z,16.45
2022-10-31T05:22:04.050Z,16.35
2022-10-31T05:24:33.371Z,15.38
2022-10-31T05:27:00.321Z,17.77
2022-10-31T05:29:27.802Z,16.13
2022-10-31T05:31:54.562Z,16.42
2022-10-31T05:34:44.156Z,14.90
2022-10-31T05:37:37.227Z,16.02
2022-10-31T05:40:08.165Z,15.38
2022-10-31T05:42:36.151Z,21.08
2022-10-31T05:45:02.923Z,20.55
2022-10-31T05:47:54.260Z,22.45
2022-10-31T05:50:39.424Z,21.25
2022-10-31T05:53:10.066Z,21.10
2022-10-31T05:55:38.476Z,19.35
2022-10-31T05:58:09.817Z,19.58
2022-10-31T06:00:37.970Z,23.13
2022-10-31T06:05:50.610Z,18.90
2022-10-31T06:08:21.077Z,19.77
2022-10-31T06:10:48.862Z,18.30
2022-10-31T06:13:20.889Z,20.08
2022-10-31T06:15:57.411Z,19.52
2022-10-31T06:18:28.825Z,18.17
2022-10-31T06:20:55.531Z,18.77
2022-10-31T06:23:23.678Z,17.45
2022-10-31T06:25:56.301Z,19.52
2022-10-31T06:28:22.950Z,18.98
2022-10-31T06:30:56.236Z,17.65
2022-10-31T06:33:23.706Z,17.10
2022-10-31T06:35:56.797Z,16.45
2022-10-31T06:38:24.134Z,16.23
2022-10-31T06:40:51.770Z,17.88
2022-10-31T06:43:22.739Z,17.83
2022-10-31T06:45:51.646Z,16.33
2022-10-31T06:48:25.766Z,17.85
2022-10-31T06:51:12.539Z,18.38
2022-10-31T06:53:39.211Z,19.73
2022-10-31T06:56:08.325Z,18.75
2022-10-31T06:58:40.543Z,17.67
2022-10-31T07:01:09.168Z,19.63
2022-10-31T07:03:35.914Z,22.10
2022-10-31T07:06:02.628Z,22.85
2022-10-31T07:08:30.152Z,26.00
2022-10-31T07:10:59.103Z,23.65
2022-10-31T07:13:27.881Z,23.15
2022-10-31T07:16:05.315Z,25.77
2022-10-31T07:18:35.046Z,23.02
2022-10-31T07:21:02.525Z,22.45
2022-10-31T07:23:29.263Z,22.80
2022-10-31T07:26:22.310Z,24.90
2022-10-31T07:28:49.236Z,26.17
2022-10-31T07:31:19.304Z,28.90
2022-10-31T07:33:46.228Z,27.42
2022-10-31T07:36:28.225Z,27.23
2022-10-31T07:38:59.877Z,27.58
2022-10-31T07:41:26.639Z,25.33
2022-10-31T07:47:04.097Z,30.33
2022-10-31T07:49:49.364Z,29.40
2022-10-31T07:52:39.546Z,28.88
2022-10-31T07:55:35.888Z,27.65
2022-10-31T07:58:11.131Z,28.23
2022-10-31T08:00:41.901Z,26.83
2022-10-31T08:03:14.493Z,26.55
2022-10-31T08:05:59.853Z,25.45
2022-10-31T08:08:45.275Z,25.20
2022-10-31T08:11:11.865Z,24.73
2022-10-31T08:13:39.267Z,26.48
2022-10-31T08:16:08.269Z,24.38
2022-10-31T08:18:40.414Z,23.15
2022-10-31T08:21:12.375Z,24.73
2022-10-31T08:23:39.082Z,23.13
2022-10-31T08:26:06.982Z,24.67
2022-10-31T08:28:33.780Z,24.27
2022-10-31T08:31:00.741Z,23.30
2022-10-31T08:33:39.757Z,24.70
2022-10-31T08:36:09.423Z,25.40
2022-10-31T08:39:03.486Z,24.30
2022-10-31T08:41:31.290Z,20.55
2022-10-31T08:43:59.648Z,18.23
2022-10-31T08:46:26.262Z,17.45
2022-10-31T08:48:53.645Z,17.52
2022-10-31T08:51:21.137Z,16.77
2022-10-31T08:53:51.542Z,16.70
2022-10-31T08:56:41.510Z,15.48
2022-10-31T08:59:29.074Z,16.02
2022-10-31T09:02:31.180Z,14.65
2022-10-31T09:05:00.506Z,15.00
2022-10-31T09:07:27.914Z,15.40
2022-10-31T09:09:56.785Z,15.35
2022-10-31T09:12:24.815Z,14.45
2022-10-31T09:14:57.490Z,13.75
2022-10-31T09:17:48.641Z,15.05
2022-10-31T09:20:29.608Z,15.15
2022-10-31T09:23:01.496Z,14.82
2022-10-31T09:25:30.423Z,14.57
2022-10-31T09:28:26.562Z,13.98
2022-10-31T09:30:55.490Z,14.60
2022-10-31T09:33:43.021Z,14.63
2022-10-31T09:36:29.714Z,12.95
2022-10-31T09:38:56.771Z,14.00
2022-10-31T09:41:43.162Z,12.85
2022-10-31T09:44:23.704Z,13.85
2022-10-31T09:47:00.186Z,13.75
2022-10-31T09:49:49.699Z,13.25
2022-10-31T09:52:37.500Z,12.13
2022-10-31T09:55:18.802Z,12.98
2022-10-31T09:57:47.666Z,11.85
2022-10-31T10:00:20.747Z,11.85
2022-10-31T10:02:47.612Z,12.63
2022-10-31T10:05:19.290Z,12.80
2022-10-31T10:11:04.494Z,11.90
2022-10-31T10:14:12.705Z,12.27
2022-10-31T10:17:04.590Z,10.73
2022-10-31T10:22:11.764Z,9.75
2022-10-31T10:25:10.352Z,9.45
2022-10-31T10:27:51.913Z,11.75
2022-10-31T10:30:25.306Z,10.70
2022-10-31T10:33:01.006Z,11.40
2022-10-31T10:35:50.137Z,10.30
2022-10-31T10:38:37.050Z,11.05
2022-10-31T10:41:10.853Z,11.63
2022-10-31T10:43:38.689Z,11.23
2022-10-31T10:46:30.234Z,12.65
2022-10-31T10:49:19.166Z,12.13
2022-10-31T10:52:13.345Z,11.55
2022-10-31T10:55:14.645Z,11.20
2022-10-31T10:58:07.120Z,10.77
2022-10-31T11:00:47.198Z,10.77
2022-10-31T11:03:16.271Z,11.23
2022-10-31T11:05:51.777Z,10.48
2022-10-31T11:08:31.793Z,11.35
2022-10-31T11:11:04.605Z,10.68
2022-10-31T11:13:32.201Z,11.25
2022-10-31T11:16:01.006Z,10.40
2022-10-31T11:18:31.079Z,10.73
2022-10-31T11:21:00.302Z,10.45
2022-10-31T11:23:29.117Z,11.05
2022-10-31T11:26:05.833Z,11.80
2022-10-31T11:28:35.751Z,10.60
2022-10-31T11:31:09.272Z,12.48
2022-10-31T11:33:39.458Z,9.93
2022-10-31T11:36:28.476Z,10.20
2022-10-31T11:38:55.669Z,12.23
2022-10-31T11:41:32.835Z,9.98
2022-10-31T11:44:12.730Z,10.68
2022-10-31T11:47:00.969Z,10.88
2022-10-31T11:49:38.497Z,9.95
2022-10-31T11:52:16.384Z,9.63
2022-10-31T11:54:50.031Z,9.57
2022-10-31T11:57:31.829Z,11.48
2022-10-31T12:00:01.364Z,9.73
2022-10-31T12:02:28.535Z,10.45
2022-10-31T12:05:24.029Z,10.68
2022-10-31T12:07:51.090Z,9.23
2022-10-31T12:13:32.371Z,9.75
2022-10-31T12:16:21.113Z,9.35
2022-10-31T12:18:47.677Z,9.38
2022-10-31T12:21:22.144Z,9.13
2022-10-31T12:24:12.381Z,9.07
2022-10-31T12:27:14.125Z,9.30
2022-10-31T12:30:17.974Z,10.65
2022-10-31T12:33:08.705Z,9.73
2022-10-31T12:35:53.527Z,9.05
2022-10-31T12:38:42.935Z,10.40
2022-10-31T12:41:12.733Z,9.65
2022-10-31T12:43:54.046Z,10.27
2022-10-31T12:46:26.678Z,8.70
2022-10-31T12:49:15.951Z,9.35
2022-10-31T12:51:54.695Z,9.13
2022-10-31T12:54:42.754Z,8.88
2022-10-31T12:57:34.485Z,8.77
2022-10-31T13:00:03.850Z,8.95
2022-10-31T13:02:44.278Z,8.65
2022-10-31T13:05:29.932Z,8.82
2022-10-31T13:08:02.822Z,9.25
2022-10-31T13:10:32.945Z,9.48
2022-10-31T13:13:27.267Z,7.65
2022-10-31T13:16:01.775Z,8.95
2022-10-31T13:18:34.670Z,8.07
2022-10-31T13:21:06.265Z,8.60
2022-10-31T13:23:50.256Z,7.63
2022-10-31T13:26:24.816Z,7.28
2022-10-31T13:29:03.777Z,7.65
2022-10-31T13:31:30.668Z,7.78
2022-10-31T13:34:01.945Z,8.52
2022-10-31T13:36:59.155Z,6.95
2022-10-31T13:40:05.723Z,7.25
2022-10-31T13:43:03.715Z,7.38
2022-10-31T13:45:30.486Z,6.70
2022-10-31T13:48:00.578Z,7.43
2022-10-31T13:50:33.059Z,6.85
2022-10-31T13:53:17.698Z,7.25
2022-10-31T13:55:47.235Z,8.05
2022-10-31T13:58:28.578Z,6.53
2022-10-31T14:01:19.746Z,6.65
2022-10-31T14:04:24.968Z,6.20
2022-10-31T14:07:07.670Z,5.55
2022-10-31T14:09:56.270Z,5.43
2022-10-31T14:12:42.559Z,5.55
2022-10-31T14:15:19.581Z,5.45
2022-10-31T14:17:52.393Z,5.15
2022-10-31T14:20:18.938Z,5.45
2022-10-31T14:22:45.678Z,5.53
2022-10-31T14:25:36.907Z,6.70
2022-10-31T14:28:34.100Z,5.90
2022-10-31T14:31:01.584Z,6.07
2022-10-31T14:33:30.826Z,5.80
2022-10-31T14:36:48.585Z,5.65
2022-10-31T14:39:25.040Z,5.97
2022-10-31T14:42:03.652Z,4.95
2022-10-31T14:44:45.253Z,5.20
2022-10-31T14:47:31.040Z,5.80
2022-10-31T14:50:34.174Z,5.75
2022-10-31T14:53:04.860Z,5.75
2022-10-31T14:55:32.512Z,4.80
2022-10-31T14:58:04.472Z,5.55
2022-10-31T15:00:33.032Z,5.00
2022-10-31T15:03:10.779Z,4.65
2022-10-31T15:05:46.022Z,5.28
2022-10-31T15:08:30.504Z,5.13
2022-10-31T15:10:57.211Z,4.43
2022-10-31T15:13:24.117Z,4.28
2022-10-31T15:15:56.389Z,5.43
2022-10-31T15:18:26.840Z,5.13
2022-10-31T15:20:56.014Z,5.25
2022-10-31T15:23:28.670Z,4.50
2022-10-31T15:26:03.546Z,5.63
2022-10-31T15:28:32.065Z,4.60
2022-10-31T15:31:00.857Z,4.85
2022-10-31T15:33:36.778Z,4.97
2022-10-31T15:36:05.808Z,5.00
2022-10-31T15:38:33.678Z,4.93
2022-10-31T15:41:20.652Z,4.75
2022-10-31T15:43:48.354Z,4.20
2022-10-31T15:46:15.218Z,4.88
2022-10-31T15:48:47.054Z,4.38
2022-10-31T15:51:13.865Z,5.13
2022-10-31T15:53:49.194Z,5.47
2022-10-31T15:56:30.296Z,4.95
2022-10-31T15:58:59.412Z,4.78
2022-10-31T16:01:29.607Z,4.53
2022-10-31T16:04:11.650Z,4.65
2022-10-31T16:06:38.546Z,4.70
2022-10-31T16:09:22.043Z,4.50
2022-10-31T16:11:48.839Z,5.00
2022-10-31T16:14:25.535Z,5.80
2022-10-31T16:16:55.755Z,4.60
2022-10-31T16:19:29.027Z,5.22
2022-10-31T16:22:05.694Z,5.15
2022-10-31T16:24:40.319Z,5.10
2022-10-31T16:27:18.500Z,4.68
2022-10-31T16:29:47.199Z,3.88
2022-10-31T16:32:34.175Z,4.90
2022-10-31T16:35:12.747Z,5.07
2022-10-31T16:37:42.898Z,5.57
2022-10-31T16:40:12.187Z,5.18
2022-10-31T16:42:38.851Z,4.57
2022-10-31T16:45:15.622Z,4.60
2022-10-31T16:47:42.342Z,4.70
2022-10-31T16:50:24.249Z,5.30
2022-10-31T16:53:12.844Z,4.63
2022-10-31T16:55:59.094Z,5.03
2022-10-31T16:58:30.464Z,5.53
2022-10-31T17:00:58.337Z,4.78
2022-10-31T17:03:25.156Z,5.22
2022-10-31T17:05:51.899Z,4.90
2022-10-31T17:08:19.041Z,4.88
2022-10-31T17:10:47.281Z,5.55
2022-10-31T17:13:18.793Z,5.47
2022-10-31T17:15:50.136Z,5.32
2022-10-31T17:18:20.481Z,5.25
2022-10-31T17:20:49.534Z,5.00
2022-10-31T17:23:17.155Z,5.30
2022-10-31T17:25:44.051Z,5.13
2022-10-31T17:28:13.919Z,5.55
2022-10-31T17:30:42.345Z,5.30
2022-10-31T17:33:16.933Z,5.38
2022-10-31T17:35:44.784Z,6.00
2022-10-31T17:38:12.162Z,6.03
2022-10-31T17:40:42.071Z,5.82
2022-10-31T17:43:09.570Z,5.47
2022-10-31T17:45:40.253Z,7.80
2022-10-31T17:48:07.433Z,5.72
2022-10-31T17:50:34.132Z,5.60
2022-10-31T17:53:01.796Z,5.60
2022-10-31T17:55:32.821Z,6.18
2022-10-31T17:58:04.418Z,5.53
2022-10-31T18:00:31.194Z,5.57
2022-10-31T18:02:57.935Z,5.95
2022-10-31T18:05:24.678Z,5.35
2022-10-31T18:07:51.523Z,5.03
2022-10-31T18:10:18.330Z,5.10
2022-10-31T18:12:44.967Z,5.90
2022-10-31T18:15:11.798Z,5.97
2022-10-31T18:17:41.938Z,5.40
2022-10-31T18:20:09.714Z,5.22
2022-10-31T18:22:36.492Z,7.15
2022-10-31T18:25:03.630Z,6.65
2022-10-31T18:27:30.293Z,6.15
2022-10-31T18:29:56.899Z,6.13
2022-10-31T18:32:23.492Z,10.75
2022-10-31T18:34:50.082Z,9.38
2022-10-31T18:37:16.788Z,5.63
2022-10-31T18:39:43.416Z,6.28
2022-10-31T18:42:10.027Z,5.47
2022-10-31T18:44:36.646Z,5.07
2022-10-31T18:47:03.287Z,5.25
2022-10-31T18:49:32.573Z,48.45
2022-10-31T18:51:59.735Z,6.97
2022-10-31T18:54:26.445Z,5.97
2022-10-31T18:56:53.073Z,6.50
2022-10-31T18:59:19.695Z,7.60
2022-10-31T19:01:46.725Z,5.72
2022-10-31T19:04:13.685Z,5.65
2022-10-31T19:06:40.353Z,6.65
2022-10-31T19:09:10.453Z,6.75
2022-10-31T19:11:38.396Z,7.75
2022-10-31T19:14:07.999Z,6.40
2022-10-31T19:16:35.135Z,6.20
2022-10-31T19:19:02.083Z,5.57
2022-10-31T19:21:31.024Z,5.85
2022-10-31T19:23:59.269Z,5.25
2022-10-31T19:26:27.143Z,5.65
2022-10-31T19:28:56.012Z,5.22
2022-10-31T19:31:22.811Z,5.78
2022-10-31T19:33:49.753Z,6.65
2022-10-31T19:36:18.665Z,6.20
2022-10-31T19:38:50.718Z,5.80
2022-10-31T19:41:22.480Z,6.03
2022-10-31T19:43:49.324Z,5.63
2022-10-31T19:46:22.695Z,5.78
2022-10-31T19:49:01.000Z,5.53
2022-10-31T19:51:27.985Z,5.57
2022-10-31T19:53:54.936Z,5.78
2022-10-31T19:56:23.647Z,5.80
2022-10-31T19:58:50.407Z,5.88
2022-10-31T20:01:22.560Z,5.53
2022-10-31T20:03:50.118Z,5.80
2022-10-31T20:06:24.796Z,5.60
2022-10-31T20:08:52.291Z,5.32
2022-10-31T20:11:19.348Z,5.53
2022-10-31T20:13:46.130Z,6.88
2022-10-31T20:16:14.473Z,5.80
2022-10-31T20:18:42.350Z,6.22
2022-10-31T20:21:12.289Z,7.00
2022-10-31T20:23:39.985Z,6.95
2022-10-31T20:26:10.342Z,5.63
2022-10-31T20:28:41.446Z,5.57
2022-10-31T20:31:16.969Z,5.82
2022-10-31T20:33:44.032Z,5.88
2022-10-31T20:36:11.452Z,5.82
2022-10-31T20:38:40.077Z,6.63
2022-10-31T20:41:09.048Z,113.97
2022-10-31T20:43:36.634Z,50.85
2022-10-31T20:46:04.849Z,9.23
2022-10-31T20:48:32.016Z,7.05
2022-10-31T20:51:00.611Z,6.60
2022-10-31T20:53:27.576Z,6.45
2022-10-31T20:56:13.227Z,6.47
2022-10-31T20:58:41.471Z,6.35
2022-10-31T21:01:29.585Z,5.90
2022-10-31T21:03:58.165Z,6.10
2022-10-31T21:06:25.747Z,7.05
2022-10-31T21:08:53.652Z,5.95
2022-10-31T21:11:22.607Z,6.25
2022-10-31T21:13:50.377Z,7.00
2022-10-31T21:16:20.046Z,5.65
2022-10-31T21:18:49.126Z,6.30
2022-10-31T21:21:23.337Z,7.03
2022-10-31T21:23:57.446Z,6.22
2022-10-31T21:26:26.251Z,8.18
2022-10-31T21:28:56.330Z,8.02
2022-10-31T21:31:23.875Z,9.52
2022-10-31T21:33:50.558Z,7.43
2022-10-31T21:36:17.811Z,8.30
2022-10-31T21:38:44.594Z,10.40
2022-10-31T21:41:14.418Z,7.78
2022-10-31T21:43:44.367Z,6.82
2022-10-31T21:46:15.687Z,6.63
2022-10-31T21:48:43.604Z,6.80
2022-10-31T21:51:12.798Z,7.40
2022-10-31T21:53:58.164Z,6.55
2022-10-31T21:56:25.510Z,7.97
2022-10-31T21:58:52.989Z,8.98
2022-10-31T22:01:20.178Z,8.43
2022-10-31T22:03:47.026Z,12.23
2022-10-31T22:06:14.277Z,10.48
2022-10-31T22:08:41.762Z,9.93
2022-10-31T22:11:16.449Z,9.98
2022-10-31T22:13:45.481Z,8.40
2022-10-31T22:16:14.643Z,7.30
2022-10-31T22:18:42.594Z,9.32
2022-10-31T22:21:18.848Z,9.15
2022-10-31T22:23:51.101Z,6.80
2022-10-31T22:26:18.484Z,6.93
2022-10-31T22:28:47.464Z,7.80
2022-10-31T22:31:17.813Z,7.25
2022-10-31T22:33:46.167Z,7.43
2022-10-31T22:36:16.723Z,7.10
2022-10-31T22:38:44.036Z,8.13
2022-10-31T22:41:13.199Z,7.10
2022-10-31T22:43:39.901Z,6.93
2022-10-31T22:46:09.743Z,7.10
2022-10-31T22:48:38.830Z,6.43
2022-10-31T22:51:13.718Z,7.07
2022-10-31T22:53:41.110Z,6.55
2022-10-31T22:56:09.565Z,6.22
2022-10-31T22:58:36.809Z,6.18
2022-10-31T23:01:08.818Z,6.32
2022-10-31T23:03:36.578Z,6.05
2022-10-31T23:06:04.801Z,6.35
2022-10-31T23:08:33.838Z,8.00
2022-10-31T23:11:00.448Z,6.97
2022-10-31T23:13:45.712Z,6.90
2022-10-31T23:16:13.303Z,6.00
2022-10-31T23:18:55.254Z,6.32
2022-10-31T23:21:43.724Z,6.03
2022-10-31T23:24:13.377Z,6.47
2022-10-31T23:26:58.909Z,5.78
2022-10-31T23:29:25.508Z,6.03
2022-10-31T23:31:54.427Z,6.25
2022-10-31T23:34:22.077Z,5.40
2022-10-31T23:36:49.179Z,5.78
2022-10-31T23:39:18.793Z,5.80
2022-10-31T23:41:48.139Z,5.63
2022-10-31T23:44:14.836Z,5.35
2022-10-31T23:46:41.414Z,5.97
2022-10-31T23:49:07.992Z,5.80
2022-10-31T23:51:34.639Z,6.20
2022-10-31T23:54:01.226Z,4.65
2022-10-31T23:56:27.929Z,4.72
2022-10-31T23:58:54.594Z,6.88
